sensor_id;sensor_type;location;lat;lon;timestamp;temperature;humidity
5429;DHT22;2737;52.386;9.980;2023-08-06T00:00:59;14.50;99.90
5429;DHT22;2737;52.386;9.980;2023-08-06T00:03:26;14.50;99.90
5429;DHT22;2737;52.386;9.980;2023-08-06T00:05:53;14.50;99.90
5429;DHT22;2737;52.386;9.980;2023-08-06T00:08:21;14.50;99.90
5429;DHT22;2737;52.386;9.980;2023-08-06T00:10:48;14.60;99.90
5429;DHT22;2737;52.386;9.980;2023-08-06T00:13:15;14.50;99.90
5429;DHT22;2737;52.386;9.980;2023-08-06T00:15:42;14.50;99.90
5429;DHT22;2737;52.386;9.980;2023-08-06T00:18:09;14.60;99.90
5429;DHT22;2737;52.386;9.980;2023-08-06T00:20:39;14.60;99.90
5429;DHT22;2737;52.386;9.980;2023-08-06T00:23:06;14.60;99.90
5429;DHT22;2737;52.386;9.980;2023-08-06T00:25:34;14.70;99.90
5429;DHT22;2737;52.386;9.980;2023-08-06T00:28:01;14.60;99.90
5429;DHT22;2737;52.386;9.980;2023-08-06T00:30:28;14.60;99.90
5429;DHT22;2737;52.386;9.980;2023-08-06T00:32:55;14.60;99.90
5429;DHT22;2737;52.386;9.980;2023-08-06T00:35:22;14.60;99.90
5429;DHT22;2737;52.386;9.980;2023-08-06T00:37:49;14.60;99.90
5429;DHT22;2737;52.386;9.980;2023-08-06T00:40:16;14.60;99.90
5429;DHT22;2737;52.386;9.980;2023-08-06T00:42:47;14.60;99.90
5429;DHT22;2737;52.386;9.980;2023-08-06T00:45:15;14.70;99.90
5429;DHT22;2737;52.386;9.980;2023-08-06T00:47:42;14.70;99.90
5429;DHT22;2737;52.386;9.980;2023-08-06T00:50:09;14.70;99.90
5429;DHT22;2737;52.386;9.980;2023-08-06T00:52:37;14.70;99.90
5429;DHT22;2737;52.386;9.980;2023-08-06T00:55:04;14.70;99.90
5429;DHT22;2737;52.386;9.980;2023-08-06T00:57:32;14.70;99.90
5429;DHT22;2737;52.386;9.980;2023-08-06T01:00:02;14.70;99.90
5429;DHT22;2737;52.386;9.980;2023-08-06T01:02:30;14.70;99.90
5429;DHT22;2737;52.386;9.980;2023-08-06T01:04:57;14.70;99.90
5429;DHT22;2737;52.386;9.980;2023-08-06T01:07:37;14.70;99.90
5429;DHT22;2737;52.386;9.980;2023-08-06T01:10:19;14.70;99.90
5429;DHT22;2737;52.386;9.980;2023-08-06T01:12:57;14.70;99.90
5429;DHT22;2737;52.386;9.980;2023-08-06T01:15:33;14.70;99.90
5429;DHT22;2737;52.386;9.980;2023-08-06T01:18:02;14.70;99.90
5429;DHT22;2737;52.386;9.980;2023-08-06T01:20:31;14.60;99.90
5429;DHT22;2737;52.386;9.980;2023-08-06T01:22:58;14.60;99.90
5429;DHT22;2737;52.386;9.980;2023-08-06T01:25:33;14.60;99.90
5429;DHT22;2737;52.386;9.980;2023-08-06T01:28:06;14.60;99.90
5429;DHT22;2737;52.386;9.980;2023-08-06T01:30:39;14.60;99.90
5429;DHT22;2737;52.386;9.980;2023-08-06T01:33:12;14.50;99.90
5429;DHT22;2737;52.386;9.980;2023-08-06T01:35:42;14.50;99.90
5429;DHT22;2737;52.386;9.980;2023-08-06T01:38:10;14.50;99.90
5429;DHT22;2737;52.386;9.980;2023-08-06T01:40:37;14.50;99.90
5429;DHT22;2737;52.386;9.980;2023-08-06T01:43:04;14.50;99.90
5429;DHT22;2737;52.386;9.980;2023-08-06T01:45:31;14.50;99.90
5429;DHT22;2737;52.386;9.980;2023-08-06T01:47:58;14.50;99.90
5429;DHT22;2737;52.386;9.980;2023-08-06T01:50:25;14.50;99.90
5429;DHT22;2737;52.386;9.980;2023-08-06T01:52:53;14.50;99.90
5429;DHT22;2737;52.386;9.980;2023-08-06T01:55:20;14.50;99.90
5429;DHT22;2737;52.386;9.980;2023-08-06T01:57:47;14.40;99.90
5429;DHT22;2737;52.386;9.980;2023-08-06T02:00:14;14.40;99.90
5429;DHT22;2737;52.386;9.980;2023-08-06T02:02:41;14.40;99.90
5429;DHT22;2737;52.386;9.980;2023-08-06T02:05:08;14.40;99.90
5429;DHT22;2737;52.386;9.980;2023-08-06T02:07:35;14.40;99.90
5429;DHT22;2737;52.386;9.980;2023-08-06T02:10:04;14.40;99.90
5429;DHT22;2737;52.386;9.980;2023-08-06T02:12:31;14.30;99.90
5429;DHT22;2737;52.386;9.980;2023-08-06T02:14:58;14.40;99.90
5429;DHT22;2737;52.386;9.980;2023-08-06T02:17:25;14.30;99.90
5429;DHT22;2737;52.386;9.980;2023-08-06T02:19:52;14.30;99.90
5429;DHT22;2737;52.386;9.980;2023-08-06T02:22:19;14.30;99.90
5429;DHT22;2737;52.386;9.980;2023-08-06T02:24:46;14.30;99.90
5429;DHT22;2737;52.386;9.980;2023-08-06T02:27:14;14.30;99.90
5429;DHT22;2737;52.386;9.980;2023-08-06T02:29:41;14.30;99.90
5429;DHT22;2737;52.386;9.980;2023-08-06T02:32:08;14.30;99.90
5429;DHT22;2737;52.386;9.980;2023-08-06T02:34:35;14.30;99.90
5429;DHT22;2737;52.386;9.980;2023-08-06T02:37:02;14.30;99.90
5429;DHT22;2737;52.386;9.980;2023-08-06T02:39:30;14.30;99.90
5429;DHT22;2737;52.386;9.980;2023-08-06T02:41:57;14.20;99.90
5429;DHT22;2737;52.386;9.980;2023-08-06T02:44:27;14.20;99.90
5429;DHT22;2737;52.386;9.980;2023-08-06T02:46:54;14.10;99.90
5429;DHT22;2737;52.386;9.980;2023-08-06T02:49:21;14.10;99.90
5429;DHT22;2737;52.386;9.980;2023-08-06T02:51:48;14.10;99.90
5429;DHT22;2737;52.386;9.980;2023-08-06T02:54:15;14.10;99.90
5429;DHT22;2737;52.386;9.980;2023-08-06T02:56:43;14.10;99.90
5429;DHT22;2737;52.386;9.980;2023-08-06T02:59:11;14.10;99.90
5429;DHT22;2737;52.386;9.980;2023-08-06T03:01:39;14.00;99.90
5429;DHT22;2737;52.386;9.980;2023-08-06T03:04:06;14.00;99.90
5429;DHT22;2737;52.386;9.980;2023-08-06T03:06:33;14.10;99.90
5429;DHT22;2737;52.386;9.980;2023-08-06T03:09:00;14.10;99.90
5429;DHT22;2737;52.386;9.980;2023-08-06T03:11:27;14.10;99.90
5429;DHT22;2737;52.386;9.980;2023-08-06T03:13:54;14.10;99.90
5429;DHT22;2737;52.386;9.980;2023-08-06T03:16:21;14.10;99.90
5429;DHT22;2737;52.386;9.980;2023-08-06T03:18:50;14.10;99.90
5429;DHT22;2737;52.386;9.980;2023-08-06T03:21:17;14.10;99.90
5429;DHT22;2737;52.386;9.980;2023-08-06T03:23:47;14.10;99.90
5429;DHT22;2737;52.386;9.980;2023-08-06T03:26:14;14.10;99.90
5429;DHT22;2737;52.386;9.980;2023-08-06T03:28:41;14.10;99.90
5429;DHT22;2737;52.386;9.980;2023-08-06T03:31:08;14.10;99.90
5429;DHT22;2737;52.386;9.980;2023-08-06T03:33:35;14.10;99.90
5429;DHT22;2737;52.386;9.980;2023-08-06T03:36:04;14.10;99.90
5429;DHT22;2737;52.386;9.980;2023-08-06T03:38:31;14.10;99.90
5429;DHT22;2737;52.386;9.980;2023-08-06T03:40:58;14.10;99.90
5429;DHT22;2737;52.386;9.980;2023-08-06T03:43:25;14.10;99.90
5429;DHT22;2737;52.386;9.980;2023-08-06T03:45:52;14.10;99.90
5429;DHT22;2737;52.386;9.980;2023-08-06T03:48:19;14.10;99.90
5429;DHT22;2737;52.386;9.980;2023-08-06T03:50:46;14.10;99.90
5429;DHT22;2737;52.386;9.980;2023-08-06T03:53:14;14.10;99.90
5429;DHT22;2737;52.386;9.980;2023-08-06T03:55:42;14.00;99.90
5429;DHT22;2737;52.386;9.980;2023-08-06T03:58:09;13.90;99.90
5429;DHT22;2737;52.386;9.980;2023-08-06T04:00:36;13.90;99.90
5429;DHT22;2737;52.386;9.980;2023-08-06T04:03:03;14.00;99.90
5429;DHT22;2737;52.386;9.980;2023-08-06T04:05:31;14.00;99.90
5429;DHT22;2737;52.386;9.980;2023-08-06T04:07:58;14.00;99.90
5429;DHT22;2737;52.386;9.980;2023-08-06T04:10:27;14.00;99.90
5429;DHT22;2737;52.386;9.980;2023-08-06T04:12:54;14.00;99.90
5429;DHT22;2737;52.386;9.980;2023-08-06T04:15:21;14.00;99.90
5429;DHT22;2737;52.386;9.980;2023-08-06T04:17:48;14.00;99.90
5429;DHT22;2737;52.386;9.980;2023-08-06T04:20:15;14.10;99.90
5429;DHT22;2737;52.386;9.980;2023-08-06T04:22:42;14.10;99.90
5429;DHT22;2737;52.386;9.980;2023-08-06T04:25:09;14.10;99.90
5429;DHT22;2737;52.386;9.980;2023-08-06T04:27:38;14.10;99.90
5429;DHT22;2737;52.386;9.980;2023-08-06T04:30:07;14.10;99.90
5429;DHT22;2737;52.386;9.980;2023-08-06T04:32:35;14.10;99.90
5429;DHT22;2737;52.386;9.980;2023-08-06T04:35:03;14.10;99.90
5429;DHT22;2737;52.386;9.980;2023-08-06T04:37:30;14.10;99.90
5429;DHT22;2737;52.386;9.980;2023-08-06T04:39:57;14.10;99.90
5429;DHT22;2737;52.386;9.980;2023-08-06T04:42:24;14.10;99.90
5429;DHT22;2737;52.386;9.980;2023-08-06T04:44:52;14.10;99.90
5429;DHT22;2737;52.386;9.980;2023-08-06T04:47:19;14.10;99.90
5429;DHT22;2737;52.386;9.980;2023-08-06T04:49:46;14.10;99.90
5429;DHT22;2737;52.386;9.980;2023-08-06T04:52:13;14.10;99.90
5429;DHT22;2737;52.386;9.980;2023-08-06T04:54:40;14.10;99.90
5429;DHT22;2737;52.386;9.980;2023-08-06T04:57:07;14.10;99.90
5429;DHT22;2737;52.386;9.980;2023-08-06T04:59:35;14.20;99.90
5429;DHT22;2737;52.386;9.980;2023-08-06T05:02:03;14.20;99.90
5429;DHT22;2737;52.386;9.980;2023-08-06T05:04:30;14.20;99.90
5429;DHT22;2737;52.386;9.980;2023-08-06T05:06:58;14.20;99.90
5429;DHT22;2737;52.386;9.980;2023-08-06T05:09:26;14.20;99.90
5429;DHT22;2737;52.386;9.980;2023-08-06T05:11:53;14.20;99.90
5429;DHT22;2737;52.386;9.980;2023-08-06T05:14:20;14.20;99.90
5429;DHT22;2737;52.386;9.980;2023-08-06T05:16:47;14.20;99.90
5429;DHT22;2737;52.386;9.980;2023-08-06T05:19:15;14.30;99.90
5429;DHT22;2737;52.386;9.980;2023-08-06T05:21:42;14.30;99.90
5429;DHT22;2737;52.386;9.980;2023-08-06T05:24:09;14.30;99.90
5429;DHT22;2737;52.386;9.980;2023-08-06T05:26:36;14.40;99.90
5429;DHT22;2737;52.386;9.980;2023-08-06T05:29:03;14.40;99.90
5429;DHT22;2737;52.386;9.980;2023-08-06T05:31:30;14.40;99.90
5429;DHT22;2737;52.386;9.980;2023-08-06T05:33:57;14.50;99.90
5429;DHT22;2737;52.386;9.980;2023-08-06T05:36:25;14.40;99.90
5429;DHT22;2737;52.386;9.980;2023-08-06T05:38:52;14.40;99.90
5429;DHT22;2737;52.386;9.980;2023-08-06T05:41:19;14.30;99.90
5429;DHT22;2737;52.386;9.980;2023-08-06T05:43:46;14.40;99.90
5429;DHT22;2737;52.386;9.980;2023-08-06T05:46:13;14.50;99.90
5429;DHT22;2737;52.386;9.980;2023-08-06T05:48:40;14.50;99.90
5429;DHT22;2737;52.386;9.980;2023-08-06T05:51:07;14.60;99.90
5429;DHT22;2737;52.386;9.980;2023-08-06T05:53:36;14.60;99.90
5429;DHT22;2737;52.386;9.980;2023-08-06T05:56:04;14.70;99.90
5429;DHT22;2737;52.386;9.980;2023-08-06T05:58:31;14.70;99.90
5429;DHT22;2737;52.386;9.980;2023-08-06T06:00:58;14.70;99.90
5429;DHT22;2737;52.386;9.980;2023-08-06T06:03:25;14.80;99.90
5429;DHT22;2737;52.386;9.980;2023-08-06T06:05:52;14.80;99.90
5429;DHT22;2737;52.386;9.980;2023-08-06T06:08:19;14.80;99.90
5429;DHT22;2737;52.386;9.980;2023-08-06T06:10:47;14.90;99.90
5429;DHT22;2737;52.386;9.980;2023-08-06T06:13:14;14.90;99.90
5429;DHT22;2737;52.386;9.980;2023-08-06T06:15:41;14.90;99.90
5429;DHT22;2737;52.386;9.980;2023-08-06T06:18:08;15.00;99.90
5429;DHT22;2737;52.386;9.980;2023-08-06T06:20:35;15.00;99.90
5429;DHT22;2737;52.386;9.980;2023-08-06T06:23:02;15.10;99.90
5429;DHT22;2737;52.386;9.980;2023-08-06T06:25:29;15.20;99.90
5429;DHT22;2737;52.386;9.980;2023-08-06T06:27:58;15.30;99.90
5429;DHT22;2737;52.386;9.980;2023-08-06T06:30:25;15.30;99.90
5429;DHT22;2737;52.386;9.980;2023-08-06T06:32:52;15.40;99.90
5429;DHT22;2737;52.386;9.980;2023-08-06T06:35:19;15.40;99.90
5429;DHT22;2737;52.386;9.980;2023-08-06T06:37:46;15.40;99.90
5429;DHT22;2737;52.386;9.980;2023-08-06T06:40:13;15.50;99.90
5429;DHT22;2737;52.386;9.980;2023-08-06T06:42:40;15.60;99.90
5429;DHT22;2737;52.386;9.980;2023-08-06T06:45:09;15.50;99.90
5429;DHT22;2737;52.386;9.980;2023-08-06T06:47:36;15.60;99.90
5429;DHT22;2737;52.386;9.980;2023-08-06T06:50:04;15.70;99.90
5429;DHT22;2737;52.386;9.980;2023-08-06T06:52:31;15.90;99.90
5429;DHT22;2737;52.386;9.980;2023-08-06T06:54:58;16.00;99.90
5429;DHT22;2737;52.386;9.980;2023-08-06T06:57:25;16.10;99.90
5429;DHT22;2737;52.386;9.980;2023-08-06T06:59:52;16.10;99.90
5429;DHT22;2737;52.386;9.980;2023-08-06T07:02:20;16.20;99.90
5429;DHT22;2737;52.386;9.980;2023-08-06T07:04:47;16.30;99.90
5429;DHT22;2737;52.386;9.980;2023-08-06T07:07:15;16.40;99.90
5429;DHT22;2737;52.386;9.980;2023-08-06T07:09:42;16.40;99.90
5429;DHT22;2737;52.386;9.980;2023-08-06T07:12:09;16.60;99.90
5429;DHT22;2737;52.386;9.980;2023-08-06T07:14:36;16.60;99.90
5429;DHT22;2737;52.386;9.980;2023-08-06T07:17:03;16.70;99.90
5429;DHT22;2737;52.386;9.980;2023-08-06T07:19:31;16.80;99.90
5429;DHT22;2737;52.386;9.980;2023-08-06T07:21:58;16.90;99.90
5429;DHT22;2737;52.386;9.980;2023-08-06T07:24:25;17.00;99.90
5429;DHT22;2737;52.386;9.980;2023-08-06T07:26:52;17.00;99.90
5429;DHT22;2737;52.386;9.980;2023-08-06T07:29:19;17.10;99.90
5429;DHT22;2737;52.386;9.980;2023-08-06T07:31:48;17.20;99.90
5429;DHT22;2737;52.386;9.980;2023-08-06T07:34:15;17.30;99.90
5429;DHT22;2737;52.386;9.980;2023-08-06T07:36:45;17.50;99.90
5429;DHT22;2737;52.386;9.980;2023-08-06T07:39:12;17.70;99.90
5429;DHT22;2737;52.386;9.980;2023-08-06T07:41:39;17.80;99.90
5429;DHT22;2737;52.386;9.980;2023-08-06T07:44:07;18.00;99.90
5429;DHT22;2737;52.386;9.980;2023-08-06T07:46:36;18.10;99.90
5429;DHT22;2737;52.386;9.980;2023-08-06T07:49:06;18.30;99.90
5429;DHT22;2737;52.386;9.980;2023-08-06T07:51:34;18.40;99.90
5429;DHT22;2737;52.386;9.980;2023-08-06T07:54:03;18.60;99.90
5429;DHT22;2737;52.386;9.980;2023-08-06T07:56:31;18.70;99.90
5429;DHT22;2737;52.386;9.980;2023-08-06T07:58:59;18.70;99.90
5429;DHT22;2737;52.386;9.980;2023-08-06T08:01:27;18.80;99.90
5429;DHT22;2737;52.386;9.980;2023-08-06T08:03:54;18.90;99.90
5429;DHT22;2737;52.386;9.980;2023-08-06T08:06:21;18.90;99.90
5429;DHT22;2737;52.386;9.980;2023-08-06T08:08:48;18.90;99.90
5429;DHT22;2737;52.386;9.980;2023-08-06T08:11:17;19.00;99.90
5429;DHT22;2737;52.386;9.980;2023-08-06T08:13:44;19.10;99.90
5429;DHT22;2737;52.386;9.980;2023-08-06T08:16:11;19.20;99.90
5429;DHT22;2737;52.386;9.980;2023-08-06T08:18:39;19.20;99.90
5429;DHT22;2737;52.386;9.980;2023-08-06T08:21:06;19.10;99.90
5429;DHT22;2737;52.386;9.980;2023-08-06T08:23:33;19.20;99.90
5429;DHT22;2737;52.386;9.980;2023-08-06T08:26:00;19.20;99.90
5429;DHT22;2737;52.386;9.980;2023-08-06T08:28:30;19.30;99.90
5429;DHT22;2737;52.386;9.980;2023-08-06T08:30:57;19.30;99.90
5429;DHT22;2737;52.386;9.980;2023-08-06T08:33:24;19.20;99.90
5429;DHT22;2737;52.386;9.980;2023-08-06T08:35:51;19.30;99.90
5429;DHT22;2737;52.386;9.980;2023-08-06T08:38:18;19.40;99.90
5429;DHT22;2737;52.386;9.980;2023-08-06T08:40:46;19.50;99.90
5429;DHT22;2737;52.386;9.980;2023-08-06T08:43:15;19.60;99.90
5429;DHT22;2737;52.386;9.980;2023-08-06T08:45:46;19.70;99.90
5429;DHT22;2737;52.386;9.980;2023-08-06T08:48:16;19.70;99.90
5429;DHT22;2737;52.386;9.980;2023-08-06T08:50:46;19.80;99.90
5429;DHT22;2737;52.386;9.980;2023-08-06T08:53:14;19.80;99.90
5429;DHT22;2737;52.386;9.980;2023-08-06T08:55:43;19.80;99.90
5429;DHT22;2737;52.386;9.980;2023-08-06T08:58:10;19.70;99.90
5429;DHT22;2737;52.386;9.980;2023-08-06T09:00:37;19.80;99.90
5429;DHT22;2737;52.386;9.980;2023-08-06T09:03:06;19.90;99.90
5429;DHT22;2737;52.386;9.980;2023-08-06T09:05:33;20.10;99.90
5429;DHT22;2737;52.386;9.980;2023-08-06T09:08:03;20.20;99.90
5429;DHT22;2737;52.386;9.980;2023-08-06T09:10:30;20.30;99.90
5429;DHT22;2737;52.386;9.980;2023-08-06T09:12:58;20.30;99.90
5429;DHT22;2737;52.386;9.980;2023-08-06T09:15:27;20.30;99.90
5429;DHT22;2737;52.386;9.980;2023-08-06T09:17:54;20.20;99.90
5429;DHT22;2737;52.386;9.980;2023-08-06T09:20:23;20.40;99.90
5429;DHT22;2737;52.386;9.980;2023-08-06T09:22:52;20.40;99.90
5429;DHT22;2737;52.386;9.980;2023-08-06T09:25:22;20.30;99.90
5429;DHT22;2737;52.386;9.980;2023-08-06T09:27:50;20.50;99.90
5429;DHT22;2737;52.386;9.980;2023-08-06T09:30:30;20.70;99.90
5429;DHT22;2737;52.386;9.980;2023-08-06T09:32:57;20.70;99.90
5429;DHT22;2737;52.386;9.980;2023-08-06T09:35:28;20.70;99.90
5429;DHT22;2737;52.386;9.980;2023-08-06T09:37:55;20.80;99.90
5429;DHT22;2737;52.386;9.980;2023-08-06T09:40:26;20.80;99.90
5429;DHT22;2737;52.386;9.980;2023-08-06T09:42:54;20.80;99.90
5429;DHT22;2737;52.386;9.980;2023-08-06T09:45:21;20.80;99.90
5429;DHT22;2737;52.386;9.980;2023-08-06T09:47:49;20.90;99.90
5429;DHT22;2737;52.386;9.980;2023-08-06T09:50:17;21.00;99.90
5429;DHT22;2737;52.386;9.980;2023-08-06T09:52:47;20.90;99.90
5429;DHT22;2737;52.386;9.980;2023-08-06T09:55:14;21.10;99.90
5429;DHT22;2737;52.386;9.980;2023-08-06T09:57:42;21.20;99.90
5429;DHT22;2737;52.386;9.980;2023-08-06T10:00:11;21.20;99.90
5429;DHT22;2737;52.386;9.980;2023-08-06T10:02:39;21.20;99.90
5429;DHT22;2737;52.386;9.980;2023-08-06T10:05:08;21.00;99.90
5429;DHT22;2737;52.386;9.980;2023-08-06T10:07:35;20.40;99.90
5429;DHT22;2737;52.386;9.980;2023-08-06T10:10:04;20.10;99.90
5429;DHT22;2737;52.386;9.980;2023-08-06T10:12:34;20.50;99.90
5429;DHT22;2737;52.386;9.980;2023-08-06T10:15:04;20.70;99.90
5429;DHT22;2737;52.386;9.980;2023-08-06T10:17:33;20.80;99.90
5429;DHT22;2737;52.386;9.980;2023-08-06T10:20:03;20.80;99.90
5429;DHT22;2737;52.386;9.980;2023-08-06T10:22:32;20.80;99.90
5429;DHT22;2737;52.386;9.980;2023-08-06T10:25:01;20.90;99.90
5429;DHT22;2737;52.386;9.980;2023-08-06T10:27:33;21.10;99.90
5429;DHT22;2737;52.386;9.980;2023-08-06T10:30:21;21.20;99.90
5429;DHT22;2737;52.386;9.980;2023-08-06T10:32:49;21.10;99.90
5429;DHT22;2737;52.386;9.980;2023-08-06T10:35:30;21.40;99.90
5429;DHT22;2737;52.386;9.980;2023-08-06T10:38:04;21.30;99.90
5429;DHT22;2737;52.386;9.980;2023-08-06T10:40:31;21.20;99.90
5429;DHT22;2737;52.386;9.980;2023-08-06T10:43:03;20.80;99.90
5429;DHT22;2737;52.386;9.980;2023-08-06T10:45:34;20.80;99.90
5429;DHT22;2737;52.386;9.980;2023-08-06T10:48:01;20.70;99.90
5429;DHT22;2737;52.386;9.980;2023-08-06T10:50:29;21.00;99.90
5429;DHT22;2737;52.386;9.980;2023-08-06T10:52:57;20.80;99.90
5429;DHT22;2737;52.386;9.980;2023-08-06T10:55:26;21.00;99.90
5429;DHT22;2737;52.386;9.980;2023-08-06T10:57:53;21.20;99.90
5429;DHT22;2737;52.386;9.980;2023-08-06T11:00:22;21.20;99.90
5429;DHT22;2737;52.386;9.980;2023-08-06T11:02:51;21.10;99.90
5429;DHT22;2737;52.386;9.980;2023-08-06T11:05:19;21.10;99.90
5429;DHT22;2737;52.386;9.980;2023-08-06T11:07:46;21.10;99.90
5429;DHT22;2737;52.386;9.980;2023-08-06T11:10:14;21.20;99.90
5429;DHT22;2737;52.386;9.980;2023-08-06T11:12:42;20.90;99.90
5429;DHT22;2737;52.386;9.980;2023-08-06T11:15:09;21.00;99.90
5429;DHT22;2737;52.386;9.980;2023-08-06T11:17:40;21.30;99.90
5429;DHT22;2737;52.386;9.980;2023-08-06T11:20:08;21.60;99.90
5429;DHT22;2737;52.386;9.980;2023-08-06T11:22:36;21.70;99.90
5429;DHT22;2737;52.386;9.980;2023-08-06T11:25:04;21.70;99.90
5429;DHT22;2737;52.386;9.980;2023-08-06T11:27:31;21.90;99.90
5429;DHT22;2737;52.386;9.980;2023-08-06T11:29:58;22.00;99.90
5429;DHT22;2737;52.386;9.980;2023-08-06T11:32:25;21.80;99.90
5429;DHT22;2737;52.386;9.980;2023-08-06T11:34:54;21.60;99.90
5429;DHT22;2737;52.386;9.980;2023-08-06T11:37:22;21.50;99.90
5429;DHT22;2737;52.386;9.980;2023-08-06T11:39:51;21.30;99.90
5429;DHT22;2737;52.386;9.980;2023-08-06T11:42:18;21.40;99.90
5429;DHT22;2737;52.386;9.980;2023-08-06T11:44:45;21.20;99.90
5429;DHT22;2737;52.386;9.980;2023-08-06T11:47:14;21.10;99.90
5429;DHT22;2737;52.386;9.980;2023-08-06T11:49:44;21.10;99.90
5429;DHT22;2737;52.386;9.980;2023-08-06T11:52:19;21.30;99.90
5429;DHT22;2737;52.386;9.980;2023-08-06T11:54:47;21.50;99.90
5429;DHT22;2737;52.386;9.980;2023-08-06T11:57:15;21.60;99.90
5429;DHT22;2737;52.386;9.980;2023-08-06T11:59:43;21.80;99.90
5429;DHT22;2737;52.386;9.980;2023-08-06T12:02:10;21.80;99.90
5429;DHT22;2737;52.386;9.980;2023-08-06T12:05:00;21.60;99.90
5429;DHT22;2737;52.386;9.980;2023-08-06T12:07:30;21.80;99.90
5429;DHT22;2737;52.386;9.980;2023-08-06T12:09:57;21.60;99.90
5429;DHT22;2737;52.386;9.980;2023-08-06T12:12:25;21.70;99.90
5429;DHT22;2737;52.386;9.980;2023-08-06T12:14:52;21.70;99.90
5429;DHT22;2737;52.386;9.980;2023-08-06T12:17:19;21.60;99.90
5429;DHT22;2737;52.386;9.980;2023-08-06T12:19:46;21.30;99.90
5429;DHT22;2737;52.386;9.980;2023-08-06T12:22:14;21.30;99.90
5429;DHT22;2737;52.386;9.980;2023-08-06T12:24:43;21.50;99.90
5429;DHT22;2737;52.386;9.980;2023-08-06T12:27:10;21.60;99.90
5429;DHT22;2737;52.386;9.980;2023-08-06T12:29:40;21.60;99.90
5429;DHT22;2737;52.386;9.980;2023-08-06T12:32:07;21.80;99.90
5429;DHT22;2737;52.386;9.980;2023-08-06T12:34:34;22.00;99.90
5429;DHT22;2737;52.386;9.980;2023-08-06T12:37:02;22.10;99.90
5429;DHT22;2737;52.386;9.980;2023-08-06T12:39:30;22.20;99.90
5429;DHT22;2737;52.386;9.980;2023-08-06T12:42:00;22.30;99.90
5429;DHT22;2737;52.386;9.980;2023-08-06T12:44:27;22.40;99.90
5429;DHT22;2737;52.386;9.980;2023-08-06T12:46:54;22.00;99.90
5429;DHT22;2737;52.386;9.980;2023-08-06T12:49:22;21.90;99.90
5429;DHT22;2737;52.386;9.980;2023-08-06T12:51:49;22.00;99.90
5429;DHT22;2737;52.386;9.980;2023-08-06T12:54:17;22.00;99.90
5429;DHT22;2737;52.386;9.980;2023-08-06T12:56:44;21.90;99.90
5429;DHT22;2737;52.386;9.980;2023-08-06T12:59:14;21.90;99.90
5429;DHT22;2737;52.386;9.980;2023-08-06T13:01:41;22.10;99.90
5429;DHT22;2737;52.386;9.980;2023-08-06T13:04:09;22.20;99.90
5429;DHT22;2737;52.386;9.980;2023-08-06T13:06:36;22.20;99.90
5429;DHT22;2737;52.386;9.980;2023-08-06T13:09:03;21.90;99.90
5429;DHT22;2737;52.386;9.980;2023-08-06T13:11:31;21.80;99.90
5429;DHT22;2737;52.386;9.980;2023-08-06T13:14:04;21.90;99.90
5429;DHT22;2737;52.386;9.980;2023-08-06T13:16:33;22.10;99.90
5429;DHT22;2737;52.386;9.980;2023-08-06T13:19:00;22.00;99.90
5429;DHT22;2737;52.386;9.980;2023-08-06T13:22:01;22.20;99.90
5429;DHT22;2737;52.386;9.980;2023-08-06T13:24:29;22.30;99.90
5429;DHT22;2737;52.386;9.980;2023-08-06T13:26:56;22.30;99.90
5429;DHT22;2737;52.386;9.980;2023-08-06T13:29:24;22.20;99.90
5429;DHT22;2737;52.386;9.980;2023-08-06T13:31:53;22.20;99.90
5429;DHT22;2737;52.386;9.980;2023-08-06T13:34:20;22.30;99.90
5429;DHT22;2737;52.386;9.980;2023-08-06T13:36:47;22.40;99.90
5429;DHT22;2737;52.386;9.980;2023-08-06T13:39:15;22.40;99.90
5429;DHT22;2737;52.386;9.980;2023-08-06T13:41:44;22.60;99.90
5429;DHT22;2737;52.386;9.980;2023-08-06T13:44:11;22.50;99.90
5429;DHT22;2737;52.386;9.980;2023-08-06T13:46:41;22.40;99.90
5429;DHT22;2737;52.386;9.980;2023-08-06T13:49:10;22.40;99.90
5429;DHT22;2737;52.386;9.980;2023-08-06T13:51:38;22.30;99.90
5429;DHT22;2737;52.386;9.980;2023-08-06T13:54:05;22.20;99.90
5429;DHT22;2737;52.386;9.980;2023-08-06T13:56:33;21.70;99.90
5429;DHT22;2737;52.386;9.980;2023-08-06T13:59:00;21.60;99.90
5429;DHT22;2737;52.386;9.980;2023-08-06T14:01:27;21.70;99.90
5429;DHT22;2737;52.386;9.980;2023-08-06T14:03:54;21.60;99.90
5429;DHT22;2737;52.386;9.980;2023-08-06T14:06:22;21.60;99.90
5429;DHT22;2737;52.386;9.980;2023-08-06T14:08:50;21.70;99.90
5429;DHT22;2737;52.386;9.980;2023-08-06T14:11:17;21.90;99.90
5429;DHT22;2737;52.386;9.980;2023-08-06T14:13:44;21.90;99.90
5429;DHT22;2737;52.386;9.980;2023-08-06T14:16:11;22.10;99.90
5429;DHT22;2737;52.386;9.980;2023-08-06T14:18:38;22.10;99.90
5429;DHT22;2737;52.386;9.980;2023-08-06T14:21:06;22.10;99.90
5429;DHT22;2737;52.386;9.980;2023-08-06T14:23:35;22.00;99.90
5429;DHT22;2737;52.386;9.980;2023-08-06T14:26:02;21.70;99.90
5429;DHT22;2737;52.386;9.980;2023-08-06T14:28:29;21.50;99.90
5429;DHT22;2737;52.386;9.980;2023-08-06T14:30:56;21.60;99.90
5429;DHT22;2737;52.386;9.980;2023-08-06T14:33:23;21.50;99.90
5429;DHT22;2737;52.386;9.980;2023-08-06T14:35:50;21.40;99.90
5429;DHT22;2737;52.386;9.980;2023-08-06T14:38:17;21.40;99.90
5429;DHT22;2737;52.386;9.980;2023-08-06T14:40:45;21.40;99.90
5429;DHT22;2737;52.386;9.980;2023-08-06T14:43:12;21.50;99.90
5429;DHT22;2737;52.386;9.980;2023-08-06T14:45:39;21.50;99.90
5429;DHT22;2737;52.386;9.980;2023-08-06T14:48:07;21.30;99.90
5429;DHT22;2737;52.386;9.980;2023-08-06T14:50:34;21.30;99.90
5429;DHT22;2737;52.386;9.980;2023-08-06T14:53:01;21.50;99.90
5429;DHT22;2737;52.386;9.980;2023-08-06T14:55:30;21.70;99.90
5429;DHT22;2737;52.386;9.980;2023-08-06T14:57:58;21.60;99.90
5429;DHT22;2737;52.386;9.980;2023-08-06T15:00:25;21.60;99.90
5429;DHT22;2737;52.386;9.980;2023-08-06T15:02:52;21.40;99.90
5429;DHT22;2737;52.386;9.980;2023-08-06T15:05:19;21.40;99.90
5429;DHT22;2737;52.386;9.980;2023-08-06T15:07:46;21.30;99.90
5429;DHT22;2737;52.386;9.980;2023-08-06T15:10:14;21.30;99.90
5429;DHT22;2737;52.386;9.980;2023-08-06T15:12:41;21.30;99.90
5429;DHT22;2737;52.386;9.980;2023-08-06T15:15:10;21.20;99.90
5429;DHT22;2737;52.386;9.980;2023-08-06T15:17:37;21.30;99.90
5429;DHT22;2737;52.386;9.980;2023-08-06T15:20:05;21.10;99.90
5429;DHT22;2737;52.386;9.980;2023-08-06T15:22:32;21.10;99.90
5429;DHT22;2737;52.386;9.980;2023-08-06T15:25:00;21.00;99.90
5429;DHT22;2737;52.386;9.980;2023-08-06T15:27:27;21.00;99.90
5429;DHT22;2737;52.386;9.980;2023-08-06T15:29:54;20.90;99.90
5429;DHT22;2737;52.386;9.980;2023-08-06T15:32:22;20.90;99.90
5429;DHT22;2737;52.386;9.980;2023-08-06T15:34:50;20.70;99.90
5429;DHT22;2737;52.386;9.980;2023-08-06T15:37:17;20.70;99.90
5429;DHT22;2737;52.386;9.980;2023-08-06T15:39:44;20.70;99.90
5429;DHT22;2737;52.386;9.980;2023-08-06T15:42:11;20.70;99.90
5429;DHT22;2737;52.386;9.980;2023-08-06T15:44:40;20.80;99.90
5429;DHT22;2737;52.386;9.980;2023-08-06T15:47:07;20.90;99.90
5429;DHT22;2737;52.386;9.980;2023-08-06T15:49:35;20.90;99.90
5429;DHT22;2737;52.386;9.980;2023-08-06T15:52:03;20.90;99.90
5429;DHT22;2737;52.386;9.980;2023-08-06T15:54:30;20.90;99.90
5429;DHT22;2737;52.386;9.980;2023-08-06T15:56:57;20.90;99.90
5429;DHT22;2737;52.386;9.980;2023-08-06T15:59:25;20.80;99.90
5429;DHT22;2737;52.386;9.980;2023-08-06T16:01:53;20.80;99.90
5429;DHT22;2737;52.386;9.980;2023-08-06T16:04:20;20.90;99.90
5429;DHT22;2737;52.386;9.980;2023-08-06T16:06:48;20.90;99.90